sensor_id;sensor_type;location;lat;lon;timestamp;pressure;altitude;pressure_sealevel;temperature;humidity
75668;BME280;64266;48.798;44.756;2023-04-03T00:00:57;101096.56;;;9.47;59.17
75668;BME280;64266;48.798;44.756;2023-04-03T00:06:00;101073.75;;;9.39;59.13
75668;BME280;64266;48.798;44.756;2023-04-03T00:11:04;101074.97;;;9.37;59.21
75668;BME280;64266;48.798;44.756;2023-04-03T00:16:08;101070.69;;;9.36;58.93
75668;BME280;64266;48.798;44.756;2023-04-03T00:21:13;101085.16;;;9.46;59.08
75668;BME280;64266;48.798;44.756;2023-04-03T00:26:15;101063.34;;;9.31;58.89
75668;BME280;64266;48.798;44.756;2023-04-03T00:31:18;101075.16;;;9.42;58.67
75668;BME280;64266;48.798;44.756;2023-04-03T00:36:22;101089.03;;;9.44;58.14
75668;BME280;64266;48.798;44.756;2023-04-03T00:41:25;101056.22;;;9.18;58.35
75668;BME280;64266;48.798;44.756;2023-04-03T00:46:27;101081.47;;;9.34;58.69
75668;BME280;64266;48.798;44.756;2023-04-03T00:51:30;101094.50;;;9.42;58.63
75668;BME280;64266;48.798;44.756;2023-04-03T00:56:35;101094.31;;;9.37;59.30
75668;BME280;64266;48.798;44.756;2023-04-03T01:01:38;101097.34;;;9.34;58.28
75668;BME280;64266;48.798;44.756;2023-04-03T01:06:41;101099.78;;;9.36;58.44
75668;BME280;64266;48.798;44.756;2023-04-03T01:11:44;101098.41;;;9.46;58.74
75668;BME280;64266;48.798;44.756;2023-04-03T01:16:53;101099.63;;;9.50;57.98
75668;BME280;64266;48.798;44.756;2023-04-03T01:22:06;101091.03;;;9.42;57.61
75668;BME280;64266;48.798;44.756;2023-04-03T01:27:17;101083.91;;;9.36;57.83
75668;BME280;64266;48.798;44.756;2023-04-03T01:32:20;101103.09;;;9.44;57.33
75668;BME280;64266;48.798;44.756;2023-04-03T01:37:23;101103.06;;;9.51;56.85
75668;BME280;64266;48.798;44.756;2023-04-03T01:42:26;101099.41;;;9.45;57.23
75668;BME280;64266;48.798;44.756;2023-04-03T01:47:29;101079.88;;;9.46;57.35
75668;BME280;64266;48.798;44.756;2023-04-03T01:52:31;101107.97;;;9.60;57.08
75668;BME280;64266;48.798;44.756;2023-04-03T01:57:34;101113.91;;;9.62;57.17
75668;BME280;64266;48.798;44.756;2023-04-03T02:02:38;101107.34;;;9.52;56.87
75668;BME280;64266;48.798;44.756;2023-04-03T02:07:41;101108.16;;;9.39;57.74
75668;BME280;64266;48.798;44.756;2023-04-03T02:12:43;101093.28;;;9.32;57.92
75668;BME280;64266;48.798;44.756;2023-04-03T02:17:46;101101.84;;;9.34;57.14
75668;BME280;64266;48.798;44.756;2023-04-03T02:22:49;101114.00;;;9.15;57.53
75668;BME280;64266;48.798;44.756;2023-04-03T02:27:52;101100.16;;;9.13;58.11
75668;BME280;64266;48.798;44.756;2023-04-03T02:32:56;101127.44;;;9.13;57.67
75668;BME280;64266;48.798;44.756;2023-04-03T02:38:00;101095.00;;;8.92;57.67
75668;BME280;64266;48.798;44.756;2023-04-03T02:43:04;101119.06;;;9.10;57.46
75668;BME280;64266;48.798;44.756;2023-04-03T02:48:08;101118.41;;;9.01;58.04
75668;BME280;64266;48.798;44.756;2023-04-03T02:53:11;101112.50;;;8.99;57.18
75668;BME280;64266;48.798;44.756;2023-04-03T02:58:14;101107.00;;;8.94;58.06
75668;BME280;64266;48.798;44.756;2023-04-03T03:03:18;101130.63;;;9.02;56.30
75668;BME280;64266;48.798;44.756;2023-04-03T03:08:20;101145.28;;;9.05;57.18
75668;BME280;64266;48.798;44.756;2023-04-03T03:13:24;101124.50;;;8.95;56.09
75668;BME280;64266;48.798;44.756;2023-04-03T03:18:27;101136.72;;;8.96;55.86
75668;BME280;64266;48.798;44.756;2023-04-03T03:23:31;101133.66;;;8.93;56.37
75668;BME280;64266;48.798;44.756;2023-04-03T03:28:37;101133.53;;;9.07;56.29
75668;BME280;64266;48.798;44.756;2023-04-03T03:33:41;101113.13;;;8.95;55.08
75668;BME280;64266;48.798;44.756;2023-04-03T03:38:44;101122.03;;;8.87;54.88
75668;BME280;64266;48.798;44.756;2023-04-03T03:43:47;101123.03;;;8.86;55.63
75668;BME280;64266;48.798;44.756;2023-04-03T03:48:51;101147.00;;;9.25;54.60
75668;BME280;64266;48.798;44.756;2023-04-03T03:53:54;101132.78;;;9.40;53.60
75668;BME280;64266;48.798;44.756;2023-04-03T03:58:57;101150.16;;;9.81;53.12
75668;BME280;64266;48.798;44.756;2023-04-03T04:04:00;101150.78;;;10.03;52.89
75668;BME280;64266;48.798;44.756;2023-04-03T04:09:05;101157.72;;;10.44;52.57
75668;BME280;64266;48.798;44.756;2023-04-03T04:14:08;101154.78;;;10.84;51.56
75668;BME280;64266;48.798;44.756;2023-04-03T04:19:13;101134.78;;;10.82;50.42
75668;BME280;64266;48.798;44.756;2023-04-03T04:24:17;101148.25;;;10.80;51.01
75668;BME280;64266;48.798;44.756;2023-04-03T04:29:21;101148.63;;;10.91;50.97
75668;BME280;64266;48.798;44.756;2023-04-03T04:34:26;101143.94;;;10.86;50.82
75668;BME280;64266;48.798;44.756;2023-04-03T04:39:28;101158.81;;;11.00;51.19
75668;BME280;64266;48.798;44.756;2023-04-03T04:44:32;101156.88;;;11.20;51.29
75668;BME280;64266;48.798;44.756;2023-04-03T04:49:36;101166.00;;;11.37;51.37
75668;BME280;64266;48.798;44.756;2023-04-03T04:54:39;101149.25;;;11.37;50.48
75668;BME280;64266;48.798;44.756;2023-04-03T04:59:45;101128.03;;;11.30;50.65
75668;BME280;64266;48.798;44.756;2023-04-03T05:04:47;101155.81;;;11.66;51.00
75668;BME280;64266;48.798;44.756;2023-04-03T05:09:57;101171.47;;;12.12;50.04
75668;BME280;64266;48.798;44.756;2023-04-03T05:15:04;101160.38;;;12.39;49.62
75668;BME280;64266;48.798;44.756;2023-04-03T05:20:10;101152.34;;;13.00;47.43
75668;BME280;64266;48.798;44.756;2023-04-03T05:25:15;101159.81;;;13.70;47.12
75668;BME280;64266;48.798;44.756;2023-04-03T05:30:19;101152.66;;;15.09;44.19
75668;BME280;64266;48.798;44.756;2023-04-03T05:35:24;101146.59;;;16.04;42.54
75668;BME280;64266;48.798;44.756;2023-04-03T05:40:32;101149.03;;;16.39;40.45
75668;BME280;64266;48.798;44.756;2023-04-03T05:45:37;101152.53;;;17.21;37.69
75668;BME280;64266;48.798;44.756;2023-04-03T05:50:41;101173.09;;;17.15;38.77
75668;BME280;64266;48.798;44.756;2023-04-03T05:55:52;101174.22;;;17.68;37.23
75668;BME280;64266;48.798;44.756;2023-04-03T06:00:57;101111.97;;;17.98;35.26
75668;BME280;64266;48.798;44.756;2023-04-03T06:06:03;101174.94;;;18.59;34.97
75668;BME280;64266;48.798;44.756;2023-04-03T06:11:06;101172.31;;;19.36;34.06
75668;BME280;64266;48.798;44.756;2023-04-03T06:16:12;101163.53;;;19.61;33.18
75668;BME280;64266;48.798;44.756;2023-04-03T06:21:19;101180.47;;;19.51;33.74
75668;BME280;64266;48.798;44.756;2023-04-03T06:26:23;101156.84;;;19.83;33.54
75668;BME280;64266;48.798;44.756;2023-04-03T06:31:27;101176.44;;;20.65;31.74
75668;BME280;64266;48.798;44.756;2023-04-03T06:36:30;101157.59;;;20.54;30.90
75668;BME280;64266;48.798;44.756;2023-04-03T06:41:33;101175.59;;;20.79;31.18
75668;BME280;64266;48.798;44.756;2023-04-03T06:46:38;101156.13;;;20.97;30.36
75668;BME280;64266;48.798;44.756;2023-04-03T06:51:44;101152.06;;;20.95;30.35
75668;BME280;64266;48.798;44.756;2023-04-03T06:56:49;101160.84;;;21.31;30.07
75668;BME280;64266;48.798;44.756;2023-04-03T07:02:05;101169.78;;;21.65;29.15
75668;BME280;64266;48.798;44.756;2023-04-03T07:07:09;101160.56;;;21.71;29.49
75668;BME280;64266;48.798;44.756;2023-04-03T07:12:12;101154.38;;;22.04;28.37
75668;BME280;64266;48.798;44.756;2023-04-03T07:17:15;101138.00;;;21.91;27.65
75668;BME280;64266;48.798;44.756;2023-04-03T07:22:18;101145.69;;;21.74;27.16
75668;BME280;64266;48.798;44.756;2023-04-03T07:27:21;101106.91;;;21.65;26.88
75668;BME280;64266;48.798;44.756;2023-04-03T07:32:25;101158.81;;;21.51;26.46
75668;BME280;64266;48.798;44.756;2023-04-03T07:37:28;101142.66;;;20.87;27.01
75668;BME280;64266;48.798;44.756;2023-04-03T07:42:32;101150.34;;;20.50;27.29
75668;BME280;64266;48.798;44.756;2023-04-03T07:47:34;101168.94;;;20.51;28.90
75668;BME280;64266;48.798;44.756;2023-04-03T07:52:39;101136.34;;;20.38;28.75
75668;BME280;64266;48.798;44.756;2023-04-03T07:57:41;101150.38;;;20.20;29.24
75668;BME280;64266;48.798;44.756;2023-04-03T08:02:45;101132.34;;;19.95;29.41
75668;BME280;64266;48.798;44.756;2023-04-03T08:07:58;101150.63;;;20.18;29.69
75668;BME280;64266;48.798;44.756;2023-04-03T08:13:03;101171.34;;;20.43;28.22
75668;BME280;64266;48.798;44.756;2023-04-03T08:18:11;101149.28;;;20.21;27.79
75668;BME280;64266;48.798;44.756;2023-04-03T08:23:15;101161.69;;;20.12;28.49
75668;BME280;64266;48.798;44.756;2023-04-03T08:28:21;101164.66;;;19.90;28.36
75668;BME280;64266;48.798;44.756;2023-04-03T08:33:25;101161.44;;;19.93;29.12
75668;BME280;64266;48.798;44.756;2023-04-03T08:38:29;101169.75;;;19.96;28.44
75668;BME280;64266;48.798;44.756;2023-04-03T08:49:18;101141.75;;;19.72;26.41
75668;BME280;64266;48.798;44.756;2023-04-03T08:54:33;101170.00;;;19.85;26.47
75668;BME280;64266;48.798;44.756;2023-04-03T08:59:40;101157.09;;;19.82;27.40
75668;BME280;64266;48.798;44.756;2023-04-03T09:04:45;101156.56;;;19.80;26.21
75668;BME280;64266;48.798;44.756;2023-04-03T09:09:49;101150.38;;;19.79;26.56
75668;BME280;64266;48.798;44.756;2023-04-03T09:20:39;101159.25;;;19.95;27.72
75668;BME280;64266;48.798;44.756;2023-04-03T09:25:45;101165.72;;;20.09;27.13
75668;BME280;64266;48.798;44.756;2023-04-03T09:30:48;101167.59;;;20.03;27.26
75668;BME280;64266;48.798;44.756;2023-04-03T09:35:51;101144.72;;;20.06;27.00
75668;BME280;64266;48.798;44.756;2023-04-03T09:41:22;101161.41;;;20.03;26.96
75668;BME280;64266;48.798;44.756;2023-04-03T09:51:30;101160.34;;;19.99;26.72
75668;BME280;64266;48.798;44.756;2023-04-03T09:56:33;101161.13;;;20.10;24.97
75668;BME280;64266;48.798;44.756;2023-04-03T10:02:00;101165.44;;;20.16;25.35
75668;BME280;64266;48.798;44.756;2023-04-03T10:07:52;101036.22;;;19.10;24.67
75668;BME280;64266;48.798;44.756;2023-04-03T10:24:11;101153.06;;;19.94;24.86
75668;BME280;64266;48.798;44.756;2023-04-03T10:34:39;101067.75;;;19.55;25.87
75668;BME280;64266;48.798;44.756;2023-04-03T10:40:29;101147.41;;;20.11;25.79
75668;BME280;64266;48.798;44.756;2023-04-03T10:57:01;101152.53;;;20.02;25.80
75668;BME280;64266;48.798;44.756;2023-04-03T11:07:43;101143.38;;;20.14;26.58
75668;BME280;64266;48.798;44.756;2023-04-03T11:13:01;101146.59;;;20.31;26.56
75668;BME280;64266;48.798;44.756;2023-04-03T11:18:39;101157.66;;;16.24;84.38
75668;BME280;64266;48.798;44.756;2023-04-03T11:23:51;101156.19;;;15.27;85.92
75668;BME280;64266;48.798;44.756;2023-04-03T11:28:59;101150.03;;;16.71;75.94
75668;BME280;64266;48.798;44.756;2023-04-03T11:34:33;101103.28;;;14.72;71.89
75668;BME280;64266;48.798;44.756;2023-04-03T11:39:48;101158.22;;;15.08;74.45
75668;BME280;64266;48.798;44.756;2023-04-03T12:11:31;101144.25;;;16.07;74.26
75668;BME280;64266;48.798;44.756;2023-04-03T12:48:25;101153.88;;;17.23;75.77
75668;BME280;64266;48.798;44.756;2023-04-03T12:53:33;101151.16;;;17.45;75.98
75668;BME280;64266;48.798;44.756;2023-04-03T12:58:42;101121.22;;;17.53;77.93
75668;BME280;64266;48.798;44.756;2023-04-03T13:03:57;101127.22;;;17.60;77.93
75668;BME280;64266;48.798;44.756;2023-04-03T13:09:03;101166.94;;;17.90;77.64
75668;BME280;64266;48.798;44.756;2023-04-03T13:14:24;101157.59;;;18.03;78.31
75668;BME280;64266;48.798;44.756;2023-04-03T13:19:34;101131.75;;;18.23;77.41
75668;BME280;64266;48.798;44.756;2023-04-03T13:24:42;101144.19;;;18.39;75.91
75668;BME280;64266;48.798;44.756;2023-04-03T13:29:53;101169.34;;;18.65;75.03
75668;BME280;64266;48.798;44.756;2023-04-03T13:35:45;101179.34;;;18.75;68.14
75668;BME280;64266;48.798;44.756;2023-04-03T13:40:58;101175.63;;;18.81;65.15
75668;BME280;64266;48.798;44.756;2023-04-03T13:51:23;101144.13;;;18.71;68.37
75668;BME280;64266;48.798;44.756;2023-04-03T13:56:40;101159.72;;;18.74;64.48
75668;BME280;64266;48.798;44.756;2023-04-03T14:01:50;101186.59;;;18.74;66.06
75668;BME280;64266;48.798;44.756;2023-04-03T14:06:56;101196.59;;;18.84;63.79
75668;BME280;64266;48.798;44.756;2023-04-03T14:12:06;101166.34;;;18.57;64.46
75668;BME280;64266;48.798;44.756;2023-04-03T14:17:24;101192.81;;;18.80;68.11
75668;BME280;64266;48.798;44.756;2023-04-03T14:22:37;101201.94;;;18.79;61.58
75668;BME280;64266;48.798;44.756;2023-04-03T14:27:43;101208.88;;;18.70;55.81
75668;BME280;64266;48.798;44.756;2023-04-03T14:32:48;101178.31;;;18.39;59.08
75668;BME280;64266;48.798;44.756;2023-04-03T14:37:52;101205.72;;;18.46;50.80
75668;BME280;64266;48.798;44.756;2023-04-03T14:42:55;101176.56;;;18.23;52.68
75668;BME280;64266;48.798;44.756;2023-04-03T14:48:00;101198.66;;;18.30;45.40
75668;BME280;64266;48.798;44.756;2023-04-03T14:53:03;101211.56;;;18.33;51.25
75668;BME280;64266;48.798;44.756;2023-04-03T14:58:12;101221.78;;;18.36;60.25
75668;BME280;64266;48.798;44.756;2023-04-03T15:03:20;101203.75;;;18.31;57.06
75668;BME280;64266;48.798;44.756;2023-04-03T15:08:26;101221.19;;;18.29;51.97
75668;BME280;64266;48.798;44.756;2023-04-03T15:13:29;101223.56;;;18.25;56.79
75668;BME280;64266;48.798;44.756;2023-04-03T15:18:37;101216.56;;;18.24;53.16
75668;BME280;64266;48.798;44.756;2023-04-03T15:23:39;101215.78;;;18.24;49.87
75668;BME280;64266;48.798;44.756;2023-04-03T15:28:43;101214.88;;;18.13;51.78
75668;BME280;64266;48.798;44.756;2023-04-03T15:33:47;101234.72;;;18.12;48.28
75668;BME280;64266;48.798;44.756;2023-04-03T15:38:50;101230.66;;;18.05;44.64
75668;BME280;64266;48.798;44.756;2023-04-03T15:43:53;101240.78;;;17.98;45.48
75668;BME280;64266;48.798;44.756;2023-04-03T15:48:55;101217.03;;;17.84;41.11
75668;BME280;64266;48.798;44.756;2023-04-03T15:53:58;101235.88;;;17.90;41.84
75668;BME280;64266;48.798;44.756;2023-04-03T15:59:00;101240.94;;;17.86;40.60
75668;BME280;64266;48.798;44.756;2023-04-03T16:04:03;101259.19;;;17.84;38.07
75668;BME280;64266;48.798;44.756;2023-04-03T16:09:07;101276.06;;;17.84;37.12
75668;BME280;64266;48.798;44.756;2023-04-03T16:14:10;101271.69;;;17.78;35.74
75668;BME280;64266;48.798;44.756;2023-04-03T16:19:12;101291.06;;;17.80;36.57
75668;BME280;64266;48.798;44.756;2023-04-03T16:24:16;101302.22;;;17.72;36.47
75668;BME280;64266;48.798;44.756;2023-04-03T16:29:20;101302.72;;;17.69;37.11
75668;BME280;64266;48.798;44.756;2023-04-03T16:34:22;101310.22;;;17.67;37.11
75668;BME280;64266;48.798;44.756;2023-04-03T16:39:31;101314.38;;;17.80;36.63
75668;BME280;64266;48.798;44.756;2023-04-03T16:44:42;101321.00;;;17.72;36.73
75668;BME280;64266;48.798;44.756;2023-04-03T16:49:46;101332.34;;;17.79;36.56
75668;BME280;64266;48.798;44.756;2023-04-03T16:54:49;101342.47;;;17.72;37.25
75668;BME280;64266;48.798;44.756;2023-04-03T16:59:52;101317.59;;;17.55;37.60
75668;BME280;64266;48.798;44.756;2023-04-03T17:04:58;101300.50;;;17.45;37.66
75668;BME280;64266;48.798;44.756;2023-04-03T17:10:00;101344.59;;;17.70;37.48
75668;BME280;64266;48.798;44.756;2023-04-03T17:15:04;101343.47;;;17.66;38.63
75668;BME280;64266;48.798;44.756;2023-04-03T17:20:07;101334.50;;;17.56;38.80
75668;BME280;64266;48.798;44.756;2023-04-03T17:25:10;101371.22;;;17.55;40.79
75668;BME280;64266;48.798;44.756;2023-04-03T17:30:16;101351.63;;;17.38;42.52
75668;BME280;64266;48.798;44.756;2023-04-03T17:35:18;101385.28;;;17.29;44.65
75668;BME280;64266;48.798;44.756;2023-04-03T17:40:21;101386.53;;;17.21;45.40
75668;BME280;64266;48.798;44.756;2023-04-03T17:45:25;101344.91;;;16.80;48.21
75668;BME280;64266;48.798;44.756;2023-04-03T17:50:28;101386.47;;;17.00;48.69
75668;BME280;64266;48.798;44.756;2023-04-03T17:55:36;101388.00;;;16.96;52.60
75668;BME280;64266;48.798;44.756;2023-04-03T18:00:39;101366.25;;;16.75;50.96
75668;BME280;64266;48.798;44.756;2023-04-03T18:05:42;101387.75;;;16.80;51.78
75668;BME280;64266;48.798;44.756;2023-04-03T18:10:44;101375.47;;;16.68;53.40
75668;BME280;64266;48.798;44.756;2023-04-03T18:15:48;101381.16;;;16.55;53.16
75668;BME280;64266;48.798;44.756;2023-04-03T18:20:50;101363.41;;;16.37;54.91
75668;BME280;64266;48.798;44.756;2023-04-03T18:25:53;101357.22;;;16.37;55.03
75668;BME280;64266;48.798;44.756;2023-04-03T18:30:57;101368.28;;;16.40;53.26
75668;BME280;64266;48.798;44.756;2023-04-03T18:36:03;101360.50;;;16.39;56.53
75668;BME280;64266;48.798;44.756;2023-04-03T18:41:06;101369.16;;;16.46;53.79
75668;BME280;64266;48.798;44.756;2023-04-03T18:46:10;101373.53;;;16.35;53.17
75668;BME280;64266;48.798;44.756;2023-04-03T18:51:13;101370.47;;;16.43;54.35
75668;BME280;64266;48.798;44.756;2023-04-03T18:56:16;101376.63;;;16.44;54.88
75668;BME280;64266;48.798;44.756;2023-04-03T19:01:19;101375.19;;;16.36;55.14
75668;BME280;64266;48.798;44.756;2023-04-03T19:06:21;101367.84;;;16.32;55.72
75668;BME280;64266;48.798;44.756;2023-04-03T19:11:24;101349.75;;;16.22;57.65
75668;BME280;64266;48.798;44.756;2023-04-03T19:16:32;101303.34;;;15.88;58.13
75668;BME280;64266;48.798;44.756;2023-04-03T19:21:55;101389.47;;;16.42;57.62
75668;BME280;64266;48.798;44.756;2023-04-03T19:26:58;101407.69;;;16.56;58.16
75668;BME280;64266;48.798;44.756;2023-04-03T19:32:02;101400.38;;;16.52;56.96
75668;BME280;64266;48.798;44.756;2023-04-03T19:37:04;101388.38;;;16.26;55.75
75668;BME280;64266;48.798;44.756;2023-04-03T19:42:08;101402.03;;;16.41;55.03
75668;BME280;64266;48.798;44.756;2023-04-03T19:47:10;101411.50;;;16.32;53.46
75668;BME280;64266;48.798;44.756;2023-04-03T19:52:13;101400.22;;;16.30;52.87
75668;BME280;64266;48.798;44.756;2023-04-03T19:57:21;101417.25;;;16.24;51.78
75668;BME280;64266;48.798;44.756;2023-04-03T20:02:24;101396.38;;;15.98;51.38
75668;BME280;64266;48.798;44.756;2023-04-03T20:07:26;101402.53;;;15.98;50.92
75668;BME280;64266;48.798;44.756;2023-04-03T20:12:29;101403.28;;;15.82;51.29
75668;BME280;64266;48.798;44.756;2023-04-03T20:17:32;101410.06;;;15.61;51.63
75668;BME280;64266;48.798;44.756;2023-04-03T20:22:37;101398.19;;;15.34;51.96
75668;BME280;64266;48.798;44.756;2023-04-03T20:27:41;101426.31;;;15.37;52.92
75668;BME280;64266;48.798;44.756;2023-04-03T20:32:43;101423.28;;;15.22;53.12
75668;BME280;64266;48.798;44.756;2023-04-03T20:37:47;101413.25;;;15.05;53.36
75668;BME280;64266;48.798;44.756;2023-04-03T20:42:50;101420.47;;;15.05;52.73
75668;BME280;64266;48.798;44.756;2023-04-03T20:47:53;101438.34;;;15.04;53.55
75668;BME280;64266;48.798;44.756;2023-04-03T20:52:57;101439.88;;;15.00;52.92
75668;BME280;64266;48.798;44.756;2023-04-03T20:58:00;101457.72;;;14.88;54.09
75668;BME280;64266;48.798;44.756;2023-04-03T21:03:03;101443.00;;;14.68;54.14
75668;BME280;64266;48.798;44.756;2023-04-03T21:19:31;101436.66;;;14.39;57.19
75668;BME280;64266;48.798;44.756;2023-04-03T21:24:35;101461.28;;;14.52;57.02
75668;BME280;64266;48.798;44.756;2023-04-03T21:29:37;101446.13;;;14.35;56.90
75668;BME280;64266;48.798;44.756;2023-04-03T21:34:39;101422.41;;;14.27;58.28
75668;BME280;64266;48.798;44.756;2023-04-03T21:39:43;101438.06;;;14.23;58.39
75668;BME280;64266;48.798;44.756;2023-04-03T21:44:46;101449.91;;;14.09;58.00
75668;BME280;64266;48.798;44.756;2023-04-03T21:49:51;101458.66;;;14.16;58.32
75668;BME280;64266;48.798;44.756;2023-04-03T21:54:54;101459.69;;;14.15;58.96
75668;BME280;64266;48.798;44.756;2023-04-03T21:59:57;101469.38;;;14.28;58.70
75668;BME280;64266;48.798;44.756;2023-04-03T22:05:00;101435.25;;;14.00;59.03
75668;BME280;64266;48.798;44.756;2023-04-03T22:10:04;101447.47;;;14.07;59.10
75668;BME280;64266;48.798;44.756;2023-04-03T22:15:08;101470.22;;;14.10;59.20
75668;BME280;64266;48.798;44.756;2023-04-03T22:20:11;101477.25;;;14.04;59.39
75668;BME280;64266;48.798;44.756;2023-04-03T22:25:14;101442.72;;;13.73;58.88
75668;BME280;64266;48.798;44.756;2023-04-03T22:30:18;101481.38;;;13.82;59.72
75668;BME280;64266;48.798;44.756;2023-04-03T22:35:21;101473.16;;;13.66;59.93
75668;BME280;64266;48.798;44.756;2023-04-03T22:40:25;101455.81;;;13.56;59.92
75668;BME280;64266;48.798;44.756;2023-04-03T22:45:28;101462.13;;;13.62;60.11
75668;BME280;64266;48.798;44.756;2023-04-03T22:50:31;101451.91;;;13.59;60.70
75668;BME280;64266;48.798;44.756;2023-04-03T22:55:35;101475.81;;;13.66;60.33
75668;BME280;64266;48.798;44.756;2023-04-03T23:00:38;101461.50;;;13.60;60.65
75668;BME280;64266;48.798;44.756;2023-04-03T23:05:41;101450.63;;;13.43;60.16
75668;BME280;64266;48.798;44.756;2023-04-03T23:10:45;101468.94;;;13.33;59.38
75668;BME280;64266;48.798;44.756;2023-04-03T23:15:59;101480.72;;;13.19;60.37
75668;BME280;64266;48.798;44.756;2023-04-03T23:21:01;101466.81;;;13.17;60.12
75668;BME280;64266;48.798;44.756;2023-04-03T23:26:06;101486.16;;;13.31;60.62
75668;BME280;64266;48.798;44.756;2023-04-03T23:31:11;101483.72;;;13.29;61.08
75668;BME280;64266;48.798;44.756;2023-04-03T23:36:13;101470.34;;;13.11;60.87
75668;BME280;64266;48.798;44.756;2023-04-03T23:41:19;101484.84;;;13.15;61.30
75668;BME280;64266;48.798;44.756;2023-04-03T23:46:22;101513.38;;;13.08;60.31
75668;BME280;64266;48.798;44.756;2023-04-03T23:51:25;101494.25;;;12.80;60.84
75668;BME280;64266;48.798;44.756;2023-04-03T23:56:28;101517.78;;;12.83;61.02
